createdAt,value
2022-11-22T00:01:40.254Z,9.00
2022-11-22T00:04:28.227Z,9.10
2022-11-22T00:07:09.906Z,9.00
2022-11-22T00:09:57.144Z,9.10
2022-11-22T00:12:40.783Z,9.10
2022-11-22T00:15:28.164Z,9.00
2022-11-22T00:18:09.640Z,9.00
2022-11-22T00:20:57.218Z,8.90
2022-11-22T00:23:38.802Z,8.70
2022-11-22T00:26:26.146Z,8.70
2022-11-22T00:29:09.249Z,8.80
2022-11-22T00:31:57.184Z,8.80
2022-11-22T00:34:45.350Z,8.70
2022-11-22T00:37:26.407Z,8.60
2022-11-22T00:40:16.129Z,8.60
2022-11-22T00:42:57.463Z,8.70
2022-11-22T00:45:47.168Z,8.70
2022-11-22T00:48:28.501Z,8.60
2022-11-22T00:51:16.278Z,8.50
2022-11-22T00:53:57.424Z,8.50
2022-11-22T00:56:45.196Z,8.50
2022-11-22T00:59:40.173Z,8.50
2022-11-22T01:02:23.050Z,8.50
2022-11-22T01:05:16.533Z,8.30
2022-11-22T01:07:58.038Z,8.20
2022-11-22T01:10:46.298Z,8.30
2022-11-22T01:13:28.494Z,8.30
2022-11-22T01:16:17.200Z,8.20
2022-11-22T01:19:00.106Z,8.10
2022-11-22T01:21:48.228Z,8.20
2022-11-22T01:24:29.669Z,8.30
2022-11-22T01:27:17.201Z,8.30
2022-11-22T01:30:05.211Z,8.20
2022-11-22T01:32:46.353Z,8.10
2022-11-22T01:35:35.296Z,8.20
2022-11-22T01:38:17.302Z,8.30
2022-11-22T01:41:05.197Z,8.30
2022-11-22T01:43:46.402Z,8.30
2022-11-22T01:46:38.252Z,8.20
2022-11-22T01:49:21.379Z,8.10
2022-11-22T01:52:13.205Z,8.10
2022-11-22T01:55:05.274Z,7.90
2022-11-22T01:57:47.775Z,8.00
2022-11-22T02:00:35.261Z,8.00
2022-11-22T02:03:18.509Z,8.00
2022-11-22T02:06:07.234Z,7.90
2022-11-22T02:08:55.327Z,7.90
2022-11-22T02:11:43.437Z,7.90
2022-11-22T02:14:26.462Z,7.80
2022-11-22T02:17:16.343Z,7.80
2022-11-22T02:19:57.642Z,7.80
2022-11-22T02:22:50.221Z,7.80
2022-11-22T02:25:37.463Z,7.60
2022-11-22T02:28:27.187Z,7.70
2022-11-22T02:31:23.198Z,7.80
2022-11-22T02:34:04.670Z,7.70
2022-11-22T02:36:54.181Z,7.60
2022-11-22T02:39:35.595Z,7.60
2022-11-22T02:42:24.211Z,7.70
2022-11-22T02:45:07.472Z,7.80
2022-11-22T02:47:56.242Z,7.80
2022-11-22T02:50:37.988Z,7.80
2022-11-22T02:53:26.217Z,7.70
2022-11-22T02:56:07.549Z,7.70
2022-11-22T02:58:57.198Z,7.70
2022-11-22T03:01:53.247Z,7.80
2022-11-22T03:04:34.894Z,7.70
2022-11-22T03:07:24.248Z,7.80
2022-11-22T03:10:05.765Z,7.70
2022-11-22T03:12:53.306Z,7.80
2022-11-22T03:15:34.546Z,7.70
2022-11-22T03:18:24.254Z,7.50
2022-11-22T03:21:06.176Z,7.50
2022-11-22T03:23:54.298Z,7.50
2022-11-22T03:26:42.194Z,7.60
2022-11-22T03:29:24.459Z,7.50
2022-11-22T03:32:12.204Z,7.50
2022-11-22T03:34:55.419Z,7.50
2022-11-22T03:37:43.241Z,7.70
2022-11-22T03:40:24.335Z,7.70
2022-11-22T03:43:12.223Z,7.70
2022-11-22T03:45:54.495Z,7.70
2022-11-22T03:48:42.377Z,7.60
2022-11-22T03:51:25.447Z,7.50
2022-11-22T03:54:13.275Z,7.50
2022-11-22T03:57:01.247Z,7.50
2022-11-22T03:59:42.636Z,7.40
2022-11-22T04:02:31.228Z,7.30
2022-11-22T04:05:12.732Z,7.30
2022-11-22T04:08:04.217Z,7.30
2022-11-22T04:10:45.679Z,7.40
2022-11-22T04:13:54.251Z,7.40
2022-11-22T04:16:35.026Z,7.40
2022-11-22T04:19:24.286Z,7.40
2022-11-22T04:22:04.907Z,7.50
2022-11-22T04:25:11.320Z,7.60
2022-11-22T04:27:52.723Z,7.60
2022-11-22T04:30:58.289Z,7.60
2022-11-22T04:33:40.018Z,7.40
2022-11-22T04:36:28.291Z,7.30
2022-11-22T04:39:09.848Z,7.60
2022-11-22T04:42:19.281Z,7.60
2022-11-22T04:44:59.742Z,7.60
2022-11-22T04:48:04.241Z,7.50
2022-11-22T04:51:10.258Z,7.60
2022-11-22T04:53:51.473Z,7.80
2022-11-22T04:56:39.280Z,7.70
2022-11-22T04:59:22.371Z,7.80
2022-11-22T05:02:10.292Z,7.70
2022-11-22T05:04:51.506Z,7.60
2022-11-22T05:07:41.305Z,7.50
2022-11-22T05:10:26.879Z,7.40
2022-11-22T05:13:16.174Z,7.60
2022-11-22T05:15:59.470Z,7.60
2022-11-22T05:18:47.248Z,7.50
2022-11-22T05:21:35.276Z,7.60
2022-11-22T05:24:16.670Z,7.70
2022-11-22T05:27:04.315Z,7.80
2022-11-22T05:29:45.796Z,7.70
2022-11-22T05:32:35.259Z,7.90
2022-11-22T05:35:17.784Z,8.00
2022-11-22T05:38:05.266Z,8.10
2022-11-22T05:40:46.679Z,8.00
2022-11-22T05:43:34.224Z,8.00
2022-11-22T05:46:22.478Z,8.10
2022-11-22T05:49:15.152Z,8.20
2022-11-22T05:52:03.351Z,8.30
2022-11-22T05:54:44.608Z,8.40
2022-11-22T05:57:32.358Z,8.40
2022-11-22T06:00:15.168Z,8.30
2022-11-22T06:03:07.373Z,8.40
2022-11-22T06:05:51.453Z,8.30
2022-11-22T06:08:39.286Z,8.30
2022-11-22T06:11:22.421Z,8.60
2022-11-22T06:14:10.257Z,8.60
2022-11-22T06:16:58.318Z,8.40
2022-11-22T06:19:39.809Z,8.30
2022-11-22T06:22:29.354Z,8.60
2022-11-22T06:25:11.031Z,8.70
2022-11-22T06:27:58.329Z,8.70
2022-11-22T06:30:39.666Z,8.40
2022-11-22T06:33:27.240Z,8.30
2022-11-22T06:36:09.555Z,8.30
2022-11-22T06:38:59.272Z,8.30
2022-11-22T06:41:40.728Z,8.50
2022-11-22T06:44:28.241Z,8.40
2022-11-22T06:47:24.278Z,8.60
2022-11-22T06:50:05.812Z,8.60
2022-11-22T06:52:53.301Z,8.60
2022-11-22T06:55:50.319Z,8.50
2022-11-22T06:58:40.443Z,8.40
2022-11-22T07:01:35.362Z,8.30
2022-11-22T07:04:24.266Z,8.30
2022-11-22T07:07:08.013Z,8.20
2022-11-22T07:09:57.273Z,8.00
2022-11-22T07:12:47.285Z,8.10
2022-11-22T07:15:28.761Z,8.30
2022-11-22T07:18:16.301Z,8.40
2022-11-22T07:21:00.917Z,8.50
2022-11-22T07:23:48.277Z,8.40
2022-11-22T07:26:29.703Z,8.30
2022-11-22T07:29:19.266Z,8.30
2022-11-22T07:32:00.651Z,8.20
2022-11-22T07:34:48.266Z,8.20
2022-11-22T07:37:31.789Z,8.10
2022-11-22T07:40:20.322Z,8.10
2022-11-22T07:43:08.317Z,7.90
2022-11-22T07:45:51.502Z,8.00
2022-11-22T07:48:39.259Z,8.40
2022-11-22T07:51:20.730Z,8.50
2022-11-22T07:54:08.358Z,8.60
2022-11-22T07:56:49.574Z,8.60
2022-11-22T07:59:37.366Z,8.40
2022-11-22T08:02:33.267Z,8.50
2022-11-22T08:05:21.331Z,8.50
2022-11-22T08:08:02.538Z,8.70
2022-11-22T08:10:51.315Z,8.80
2022-11-22T08:13:40.367Z,8.70
2022-11-22T08:16:21.747Z,8.90
2022-11-22T08:19:11.291Z,8.90
2022-11-22T08:21:58.307Z,9.10
2022-11-22T08:24:46.307Z,8.90
2022-11-22T08:27:27.722Z,9.10
2022-11-22T08:30:16.082Z,8.90
2022-11-22T08:32:56.813Z,8.80
2022-11-22T08:35:46.420Z,8.90
2022-11-22T08:38:41.290Z,9.10
2022-11-22T08:41:22.927Z,9.40
2022-11-22T08:44:10.301Z,9.30
2022-11-22T08:46:51.683Z,9.10
2022-11-22T08:49:39.322Z,9.00
2022-11-22T08:52:22.126Z,9.00
2022-11-22T08:55:09.282Z,9.00
2022-11-22T08:57:50.776Z,9.00
2022-11-22T09:00:39.380Z,9.10
2022-11-22T09:03:20.826Z,9.10
2022-11-22T09:09:40.734Z,8.90
2022-11-22T09:12:22.529Z,8.80
2022-11-22T09:15:10.431Z,8.80
2022-11-22T09:17:52.555Z,8.80
2022-11-22T09:20:40.323Z,8.50
2022-11-22T09:23:21.609Z,8.50
2022-11-22T09:26:12.290Z,8.50
2022-11-22T09:28:54.571Z,8.70
2022-11-22T09:31:42.306Z,8.70
2022-11-22T09:34:24.564Z,8.80
2022-11-22T09:37:12.327Z,9.00
2022-11-22T09:40:00.365Z,8.90
2022-11-22T09:42:48.980Z,8.90
2022-11-22T09:45:43.325Z,8.80
2022-11-22T09:48:31.348Z,8.80
2022-11-22T09:51:21.349Z,8.90
2022-11-22T09:54:05.178Z,9.10
2022-11-22T09:56:54.346Z,9.00
2022-11-22T09:59:38.672Z,8.80
2022-11-22T10:02:29.317Z,8.80
2022-11-22T10:05:35.375Z,8.70
2022-11-22T10:08:29.384Z,8.70
2022-11-22T10:11:12.506Z,8.80
2022-11-22T10:14:04.342Z,9.00
2022-11-22T10:16:49.727Z,9.10
2022-11-22T10:19:42.320Z,9.40
2022-11-22T10:22:24.582Z,9.50
2022-11-22T10:25:21.457Z,9.60
2022-11-22T10:28:11.320Z,9.70
2022-11-22T10:30:56.176Z,9.80
2022-11-22T10:33:50.347Z,10.00
2022-11-22T10:36:35.831Z,10.10
2022-11-22T10:39:36.825Z,10.30
2022-11-22T10:42:26.455Z,10.30
2022-11-22T10:45:16.336Z,10.00
2022-11-22T10:48:02.272Z,9.70
2022-11-22T10:50:58.331Z,9.70
2022-11-22T10:53:45.302Z,10.10
2022-11-22T10:56:38.355Z,10.20
2022-11-22T10:59:35.709Z,10.20
2022-11-22T11:02:30.324Z,10.20
2022-11-22T11:05:15.281Z,10.00
2022-11-22T11:08:35.419Z,9.80
2022-11-22T11:11:15.245Z,10.00
2022-11-22T11:13:59.536Z,10.20
2022-11-22T11:16:47.448Z,9.90
2022-11-22T11:19:30.652Z,9.70
2022-11-22T11:22:50.258Z,9.70
2022-11-22T11:25:40.326Z,9.80
2022-11-22T11:28:29.302Z,9.70
2022-11-22T11:31:18.923Z,9.80
2022-11-22T11:34:23.447Z,9.70
2022-11-22T11:37:05.545Z,9.70
2022-11-22T11:39:54.336Z,10.00
2022-11-22T11:42:37.530Z,9.90
2022-11-22T11:45:35.354Z,9.90
2022-11-22T11:48:34.435Z,9.90
2022-11-22T11:51:19.649Z,10.10
2022-11-22T11:54:08.338Z,10.00
2022-11-22T11:56:54.541Z,10.20
2022-11-22T11:59:51.324Z,10.30
2022-11-22T12:02:49.423Z,10.60
2022-11-22T12:05:38.506Z,10.90
2022-11-22T12:08:42.421Z,10.90
2022-11-22T12:11:33.586Z,11.10
2022-11-22T12:14:20.529Z,11.00
2022-11-22T12:17:08.017Z,10.70
2022-11-22T12:20:02.416Z,11.00
2022-11-22T12:22:50.523Z,10.90
2022-11-22T12:25:42.391Z,10.60
2022-11-22T12:28:24.679Z,10.80
2022-11-22T12:31:15.472Z,10.80
2022-11-22T12:33:59.817Z,11.10
2022-11-22T12:36:51.361Z,11.00
2022-11-22T12:39:34.819Z,11.10
2022-11-22T12:42:25.347Z,11.10
2022-11-22T12:45:09.447Z,11.10
2022-11-22T12:47:59.402Z,10.70
2022-11-22T12:50:50.448Z,10.80
2022-11-22T12:53:35.590Z,10.60
2022-11-22T12:56:32.938Z,10.50
2022-11-22T12:59:19.585Z,10.70
2022-11-22T13:02:10.379Z,10.80
2022-11-22T13:04:54.648Z,10.40
2022-11-22T13:07:51.485Z,10.50
2022-11-22T13:10:38.672Z,10.40
2022-11-22T13:13:30.404Z,10.40
2022-11-22T13:16:16.407Z,10.50
2022-11-22T13:19:06.399Z,10.30
2022-11-22T13:21:52.641Z,10.40
2022-11-22T13:24:45.404Z,10.40
2022-11-22T13:27:35.378Z,10.50
2022-11-22T13:30:20.940Z,10.60
2022-11-22T13:33:10.397Z,10.60
2022-11-22T13:35:51.810Z,10.60
2022-11-22T13:38:40.461Z,10.80
2022-11-22T13:41:25.505Z,10.90
2022-11-22T13:44:30.738Z,10.90
2022-11-22T13:47:30.575Z,10.80
2022-11-22T13:50:33.377Z,10.90
2022-11-22T13:53:22.095Z,10.60
2022-11-22T13:56:10.477Z,10.60
2022-11-22T13:58:55.681Z,10.70
2022-11-22T14:01:45.520Z,10.80
2022-11-22T14:04:47.855Z,10.80
2022-11-22T14:07:47.476Z,10.70
2022-11-22T14:10:32.575Z,10.60
2022-11-22T14:13:26.383Z,10.70
2022-11-22T14:16:17.429Z,10.70
2022-11-22T14:19:08.489Z,10.80
2022-11-22T14:22:01.011Z,10.80
2022-11-22T14:24:55.419Z,10.80
2022-11-22T14:27:39.568Z,10.70
2022-11-22T14:30:30.456Z,10.70
2022-11-22T14:33:17.346Z,10.70
2022-11-22T14:36:24.454Z,10.60
2022-11-22T14:39:20.684Z,10.70
2022-11-22T14:42:08.397Z,10.80
2022-11-22T14:44:52.384Z,11.00
2022-11-22T14:47:40.410Z,10.80
2022-11-22T14:50:26.275Z,10.90
2022-11-22T14:53:18.421Z,10.90
2022-11-22T14:56:05.544Z,10.90
2022-11-22T14:58:56.489Z,10.80
2022-11-22T15:02:04.543Z,10.70
2022-11-22T15:09:14.767Z,10.90
2022-11-22T15:09:14.917Z,10.80
2022-11-22T15:11:30.681Z,10.90
2022-11-22T15:14:49.521Z,10.70
2022-11-22T15:58:26.637Z,10.40
2022-11-22T16:01:19.056Z,10.50
2022-11-22T16:04:08.637Z,10.50
2022-11-22T16:06:50.464Z,10.50
2022-11-22T16:09:34.978Z,10.40
2022-11-22T16:15:19.108Z,10.60
2022-11-22T16:17:59.064Z,10.70
2022-11-22T16:20:29.320Z,10.70
2022-11-22T16:23:14.153Z,10.70
2022-11-22T16:25:43.933Z,10.70
2022-11-22T16:28:21.249Z,10.80
2022-11-22T16:30:49.597Z,10.80
2022-11-22T16:33:19.412Z,10.70
2022-11-22T16:35:47.483Z,10.70
2022-11-22T16:38:16.109Z,10.80
2022-11-22T16:40:45.089Z,10.80
2022-11-22T16:43:16.280Z,10.90
2022-11-22T16:45:44.423Z,10.90
2022-11-22T16:48:30.682Z,10.90
2022-11-22T16:51:02.743Z,11.00
2022-11-22T16:53:36.275Z,10.90
2022-11-22T16:56:04.532Z,10.90
2022-11-22T16:58:32.985Z,11.00
2022-11-22T17:01:01.865Z,11.00
2022-11-22T17:03:31.992Z,11.00
2022-11-22T17:06:01.752Z,11.10
2022-11-22T17:08:29.866Z,11.10
2022-11-22T17:10:58.089Z,11.00
2022-11-22T17:13:27.729Z,11.00
2022-11-22T17:15:57.154Z,11.20
2022-11-22T17:18:25.264Z,11.20
2022-11-22T17:20:53.587Z,11.20
2022-11-22T17:23:27.158Z,11.20
2022-11-22T17:25:57.223Z,11.20
2022-11-22T17:28:25.268Z,11.30
2022-11-22T17:30:53.472Z,11.30
2022-11-22T17:33:21.929Z,11.30
2022-11-22T17:35:49.937Z,11.30
2022-11-22T17:38:18.063Z,11.30
2022-11-22T17:40:50.101Z,11.20
2022-11-22T17:43:18.138Z,11.30
2022-11-22T17:45:46.340Z,11.10
2022-11-22T17:48:15.291Z,11.20
2022-11-22T17:50:43.346Z,11.20
2022-11-22T17:53:11.391Z,11.10
2022-11-22T17:56:09.039Z,10.90
2022-11-22T17:58:29.355Z,11.10
2022-11-22T18:01:04.687Z,11.00
2022-11-22T18:03:32.784Z,11.10
2022-11-22T18:06:01.324Z,11.10
2022-11-22T18:08:29.692Z,11.10
2022-11-22T18:10:59.690Z,11.00
2022-11-22T18:13:29.898Z,10.90
2022-11-22T18:16:03.253Z,11.00
2022-11-22T18:21:20.426Z,11.10
2022-11-22T18:23:48.705Z,11.00
2022-11-22T18:26:38.719Z,11.00
2022-11-22T18:31:55.654Z,11.00
2022-11-22T18:34:24.370Z,10.90
2022-11-22T18:37:00.824Z,10.90
2022-11-22T18:39:31.301Z,11.00
2022-11-22T18:41:59.753Z,11.00
2022-11-22T18:44:29.339Z,10.90
2022-11-22T18:46:57.884Z,10.90
2022-11-22T18:49:25.917Z,11.00
2022-11-22T18:51:54.336Z,10.90
2022-11-22T18:54:22.901Z,10.90
2022-11-22T18:56:51.431Z,10.80
2022-11-22T18:59:19.897Z,10.90
2022-11-22T19:01:49.644Z,10.90
2022-11-22T19:04:17.940Z,10.90
2022-11-22T19:06:46.183Z,10.80
2022-11-22T19:09:15.247Z,10.80
2022-11-22T19:11:43.454Z,10.70
2022-11-22T19:14:11.596Z,10.70
2022-11-22T19:16:40.110Z,10.70
2022-11-22T19:19:11.130Z,10.70
2022-11-22T19:21:39.291Z,10.60
2022-11-22T19:24:07.675Z,10.60
2022-11-22T19:26:35.848Z,10.70
2022-11-22T19:29:04.945Z,10.60
2022-11-22T19:31:33.843Z,10.40
2022-11-22T19:34:01.929Z,10.30
2022-11-22T19:36:34.282Z,10.30
2022-11-22T19:39:03.621Z,10.40
2022-11-22T19:41:32.073Z,10.40
2022-11-22T19:44:00.241Z,10.40
2022-11-22T19:46:29.029Z,10.30
2022-11-22T19:48:57.882Z,10.30
2022-11-22T19:51:26.904Z,10.40
2022-11-22T19:53:58.805Z,10.40
2022-11-22T19:56:29.591Z,10.50
2022-11-22T19:58:58.525Z,10.50
2022-11-22T20:01:27.609Z,10.50
2022-11-22T20:03:57.019Z,10.50
2022-11-22T20:06:25.778Z,10.40
2022-11-22T20:08:53.927Z,10.40
2022-11-22T20:11:23.432Z,10.40
2022-11-22T20:13:52.206Z,10.50
2022-11-22T20:16:22.130Z,10.50
2022-11-22T20:18:53.331Z,10.60
2022-11-22T20:21:22.629Z,10.60
2022-11-22T20:23:51.271Z,10.60
2022-11-22T20:26:19.919Z,10.60
2022-11-22T20:28:54.730Z,10.70
2022-11-22T20:31:23.768Z,10.70
2022-11-22T20:33:53.586Z,10.60
2022-11-22T20:36:22.758Z,10.60
2022-11-22T20:38:51.465Z,10.40
2022-11-22T20:41:21.769Z,10.40
2022-11-22T20:43:51.236Z,10.50
2022-11-22T20:46:20.398Z,10.60
2022-11-22T20:48:49.418Z,10.70
2022-11-22T20:51:18.816Z,10.60
2022-11-22T20:53:47.280Z,10.40
2022-11-22T20:56:16.571Z,10.60
2022-11-22T20:58:45.011Z,10.70
2022-11-22T21:01:16.390Z,10.90
2022-11-22T21:03:44.748Z,11.00
2022-11-22T21:06:13.377Z,11.00
2022-11-22T21:08:41.591Z,10.90
2022-11-22T21:11:12.386Z,11.00
2022-11-22T21:13:40.852Z,11.00
2022-11-22T21:16:22.362Z,10.80
2022-11-22T21:18:53.827Z,10.80
2022-11-22T21:21:23.966Z,10.80
2022-11-22T21:23:53.086Z,10.80
2022-11-22T21:26:21.698Z,10.80
2022-11-22T21:28:49.948Z,10.80
2022-11-22T21:31:18.733Z,10.80
2022-11-22T21:33:47.071Z,10.70
2022-11-22T21:36:17.682Z,10.70
2022-11-22T21:38:46.193Z,10.80
2022-11-22T21:41:38.764Z,10.80
2022-11-22T21:44:04.751Z,10.80
2022-11-22T21:46:32.887Z,10.80
2022-11-22T21:49:01.031Z,10.80
2022-11-22T21:51:32.154Z,10.80
2022-11-22T21:54:00.474Z,10.90
2022-11-22T21:56:29.052Z,10.80
2022-11-22T21:58:57.527Z,10.80
2022-11-22T22:01:25.939Z,10.80
2022-11-22T22:03:54.311Z,10.90
2022-11-22T22:06:22.594Z,11.00
2022-11-22T22:08:52.935Z,10.90
2022-11-22T22:11:21.013Z,11.00
2022-11-22T22:13:52.644Z,11.10
2022-11-22T22:16:23.527Z,11.10
2022-11-22T22:18:51.911Z,11.00
2022-11-22T22:21:20.391Z,11.00
2022-11-22T22:23:48.549Z,11.00
2022-11-22T22:26:18.951Z,11.00
2022-11-22T22:28:47.129Z,11.00
2022-11-22T22:31:17.490Z,10.90
2022-11-22T22:33:46.596Z,10.90
2022-11-22T22:36:15.212Z,10.90
2022-11-22T22:38:43.288Z,11.00
2022-11-22T22:41:12.718Z,11.00
2022-11-22T22:43:43.043Z,11.10
2022-11-22T22:46:12.388Z,11.00
2022-11-22T22:48:41.013Z,11.10
2022-11-22T22:51:09.723Z,11.10
2022-11-22T22:53:37.873Z,11.10
2022-11-22T22:56:06.825Z,11.10
2022-11-22T22:58:35.131Z,11.10
2022-11-22T23:01:08.464Z,11.10
2022-11-22T23:03:38.047Z,11.10
2022-11-22T23:06:07.096Z,11.10
2022-11-22T23:08:35.580Z,11.10
2022-11-22T23:11:05.008Z,11.10
2022-11-22T23:13:33.156Z,11.20
2022-11-22T23:16:01.303Z,11.20
2022-11-22T23:18:31.003Z,11.30
2022-11-22T23:20:59.750Z,11.10
2022-11-22T23:23:27.833Z,11.20
2022-11-22T23:25:56.128Z,11.30
2022-11-22T23:28:24.200Z,11.30
2022-11-22T23:30:52.357Z,11.30
2022-11-22T23:33:21.100Z,11.30
2022-11-22T23:35:51.325Z,11.20
2022-11-22T23:38:20.061Z,11.20
2022-11-22T23:40:53.565Z,11.10
2022-11-22T23:43:22.009Z,11.10
2022-11-22T23:45:50.248Z,11.10
2022-11-22T23:48:18.427Z,11.10
2022-11-22T23:50:46.475Z,11.10
2022-11-22T23:53:16.268Z,11.10
2022-11-22T23:55:44.387Z,11.10
2022-11-22T23:58:12.489Z,11.10
